• Join FlightAware (Why Join?)
  • Login
  • US Flag 
Rudolph Flight #1: Arrived! 
04:32PM EST


 

Airport Tracker/Info


-or-


 

Live Flight TrackerFlight Track Log ✈ CSC8618 ✈ 17-Aug-2014 ✈ VHHH / HKG - ZUUU / CTU

Flight Track Log - Related Links

Times and Time Zones

All times are in EDT time to prevent confusion due to time zone crossing. See the CSC8618 flight status page for this flight to view local times or setup timezone preferences in your user account.

Time Position Orientation Groundspeed Altitude Reporting Facility
EDT Latitude Longitude Course Direction KTS MPH feet Rate Location/Type
06:35AM 22.2789 113.8446 315° West 2,700  Level FlightAware ADS-B
06:36AM 23.0448 113.1115 315° West  Level Estimated
06:36AM 22.2717 113.8222 251° West 240 276 3,200  Level FlightAware ADS-B
06:36AM 22.2612 113.7993 236° Southwest 250 288 3,900 1,920 Climbing FlightAware ADS-B
06:36AM 22.2437 113.7882 194° South 269 310 4,400 2,460 Climbing FlightAware ADS-B
06:37AM 22.2348 113.7875 165° South 279 321 5,300 2,340 Climbing FlightAware ADS-B
06:37AM 22.1972 113.8052 129° Southeast 291 335 6,100 2,220 Climbing FlightAware ADS-B
06:37AM 22.1868 113.8351 96° East 292 336 7,000 2,520 Climbing FlightAware ADS-B
06:38AM 22.1875 113.8645 87° East 296 341 7,800 2,160 Climbing FlightAware ADS-B
06:38AM 22.1894 113.8947 86° East 304 350 8,500 2,280 Climbing FlightAware ADS-B
06:38AM 22.1909 113.9212 87° East 307 353 9,300 2,160 Climbing FlightAware ADS-B
06:39AM 22.2010 113.9844 65° Northeast 310 357 10,700 1,620 Climbing FlightAware ADS-B
06:39AM 22.2226 114.0075 38° Northeast 329 379 11,000 900 Climbing FlightAware ADS-B
06:40AM 22.2520 114.0209 18° North 345 397 11,300 1,380 Climbing FlightAware ADS-B
06:41AM 22.3249 114.0482 20° North 374 430 12,800 1,500 Climbing FlightAware ADS-B
06:43AM 22.4165 113.9476 315° West  Level Estimated
06:44AM 22.4687 113.8900 315° West  Level Estimated
06:45AM 22.5210 113.8324 314° West  Level Estimated
06:46AM 22.5732 113.7747 314° West  Level Estimated
06:47AM 22.6255 113.7171 314° West  Level Estimated
06:48AM 22.6777 113.6593 314° West  Level Estimated
06:49AM 22.7298 113.6015 314° West  Level Estimated
06:50AM 22.7820 113.5437 314° West  Level Estimated
06:51AM 22.8341 113.4858 314° West  Level Estimated
06:52AM 22.8862 113.4279 314° West  Level Estimated
06:53AM 22.9383 113.3699 314° West  Level Estimated
06:54AM 22.9904 113.3119 314° West  Level Estimated
06:55AM 23.0425 113.2539 314° West  Level Estimated
06:56AM 23.0945 113.1958 314° West  Level Estimated
06:57AM 23.1465 113.1376 314° West  Level Estimated
06:58AM 23.1985 113.0795 314° West  Level Estimated
06:59AM 23.2505 113.0212 314° West  Level Estimated
07:00AM 23.3024 112.9630 314° West  Level Estimated
07:01AM 23.3543 112.9046 314° West  Level Estimated
07:02AM 23.4062 112.8463 314° West  Level Estimated
07:03AM 23.4581 112.7878 314° West  Level Estimated
07:04AM 23.5100 112.7294 314° West  Level Estimated
07:05AM 23.5618 112.6709 314° West  Level Estimated
07:06AM 23.6136 112.6123 314° West  Level Estimated
07:07AM 23.6654 112.5537 314° West  Level Estimated
07:08AM 23.7172 112.4951 314° West  Level Estimated
07:09AM 23.7689 112.4364 314° West  Level Estimated
07:10AM 23.8207 112.3776 314° West  Level Estimated
07:11AM 23.8724 112.3189 314° West  Level Estimated
07:12AM 23.9240 112.2600 314° West  Level Estimated
07:13AM 23.9757 112.2011 314° West  Level Estimated
07:14AM 24.0273 112.1422 314° West  Level Estimated
07:15AM 24.0790 112.0832 314° West  Level Estimated
07:16AM 24.1306 112.0242 314° West  Level Estimated
07:17AM 24.1821 111.9651 314° West  Level Estimated
07:18AM 24.2337 111.9060 314° West  Level Estimated
07:19AM 24.2852 111.8469 314° West  Level Estimated
07:20AM 24.3367 111.7877 314° West  Level Estimated
07:21AM 24.3882 111.7284 314° West  Level Estimated
07:22AM 24.4396 111.6691 314° West  Level Estimated
07:23AM 24.4911 111.6097 314° West  Level Estimated
07:24AM 24.5425 111.5503 314° West  Level Estimated
07:25AM 24.5939 111.4909 314° West  Level Estimated
07:26AM 24.6452 111.4314 314° West  Level Estimated
07:27AM 24.6966 111.3718 314° West  Level Estimated
07:28AM 24.7479 111.3122 313° West  Level Estimated
07:29AM 24.7992 111.2525 313° West  Level Estimated
07:30AM 24.8504 111.1928 313° West  Level Estimated
07:31AM 24.9017 111.1331 313° West  Level Estimated
07:32AM 24.9529 111.0733 313° West  Level Estimated
07:33AM 25.0041 111.0135 313° West  Level Estimated
07:34AM 25.0553 110.9536 313° West  Level Estimated
07:35AM 25.1064 110.8936 313° West  Level Estimated
07:36AM 25.1576 110.8336 313° West  Level Estimated
07:37AM 25.2087 110.7736 313° West  Level Estimated
07:38AM 25.2597 110.7134 313° West  Level Estimated
07:39AM 25.3108 110.6533 313° West  Level Estimated
07:40AM 25.3618 110.5931 313° West  Level Estimated
07:41AM 25.4128 110.5329 313° West  Level Estimated
07:42AM 25.4638 110.4725 313° West  Level Estimated
07:43AM 25.5147 110.4122 313° West  Level Estimated
07:44AM 25.5657 110.3518 313° West  Level Estimated
07:45AM 25.6166 110.2913 313° West  Level Estimated
07:46AM 25.6674 110.2308 313° West  Level Estimated
07:47AM 25.7183 110.1703 313° West  Level Estimated
07:48AM 25.7691 110.1096 313° West  Level Estimated
07:49AM 25.8199 110.0490 313° West  Level Estimated
07:50AM 25.8707 109.9883 313° West  Level Estimated
07:51AM 25.9215 109.9275 313° West  Level Estimated
07:52AM 25.9722 109.8667 313° West  Level Estimated
07:53AM 26.0229 109.8058 313° West  Level Estimated
07:54AM 26.0736 109.7449 313° West  Level Estimated
07:55AM 26.1242 109.6839 313° West  Level Estimated
07:56AM 26.1749 109.6229 313° West  Level Estimated
07:57AM 26.2255 109.5618 313° West  Level Estimated
07:58AM 26.2760 109.5006 313° West  Level Estimated
07:59AM 26.3266 109.4395 313° West  Level Estimated
08:00AM 26.3771 109.3782 313° West  Level Estimated
08:01AM 26.4276 109.3169 313° West  Level Estimated
08:02AM 26.4781 109.2556 313° West  Level Estimated
08:03AM 26.5285 109.1942 313° West  Level Estimated
08:04AM 26.5789 109.1327 313° West  Level Estimated
08:05AM 26.6293 109.0712 313° West  Level Estimated
08:06AM 26.6797 109.0096 312° West  Level Estimated
08:07AM 26.7300 108.9480 312° West  Level Estimated
08:08AM 26.7803 108.8863 312° West  Level Estimated
08:09AM 26.8306 108.8246 312° West  Level Estimated
08:10AM 26.8809 108.7628 312° West  Level Estimated
08:11AM 26.9311 108.7010 312° West  Level Estimated
08:12AM 26.9813 108.6391 312° West  Level Estimated
08:13AM 27.0315 108.5771 312° West  Level Estimated
08:14AM 27.0816 108.5151 312° West  Level Estimated
08:15AM 27.1318 108.4530 312° West  Level Estimated
08:16AM 27.1819 108.3909 312° West  Level Estimated
08:17AM 27.2319 108.3287 312° West  Level Estimated
08:18AM 27.2820 108.2665 312° West  Level Estimated
08:19AM 27.3320 108.2042 312° West  Level Estimated
08:20AM 27.3820 108.1419 312° West  Level Estimated
08:21AM 27.4319 108.0795 312° West  Level Estimated
08:22AM 27.4818 108.0170 312° West  Level Estimated
08:23AM 27.5317 107.9545 312° West  Level Estimated
08:24AM 27.5816 107.8920 312° West  Level Estimated
08:25AM 27.6315 107.8293 312° West  Level Estimated
08:26AM 27.6813 107.7666 312° West  Level Estimated
08:27AM 27.7311 107.7039 312° West  Level Estimated
08:28AM 27.7808 107.6411 312° West  Level Estimated
08:29AM 27.8306 107.5782 312° West  Level Estimated
08:30AM 27.8803 107.5153 312° West  Level Estimated
08:31AM 27.9300 107.4524 312° West  Level Estimated
08:32AM 27.9796 107.3893 312° West  Level Estimated
08:33AM 28.0292 107.3263 312° West  Level Estimated
08:34AM 28.0788 107.2631 312° West  Level Estimated
08:35AM 28.1284 107.1999 312° West  Level Estimated
08:36AM 28.1779 107.1367 312° West  Level Estimated
08:37AM 28.2274 107.0733 312° West  Level Estimated
08:38AM 28.2769 107.0100 312° West  Level Estimated
08:39AM 28.3263 106.9465 312° West  Level Estimated
08:40AM 28.3757 106.8830 312° West  Level Estimated
08:41AM 28.4251 106.8195 311° West  Level Estimated
08:42AM 28.4745 106.7559 311° West  Level Estimated
08:43AM 28.5238 106.6922 311° West  Level Estimated
08:44AM 28.5731 106.6284 311° West  Level Estimated
08:45AM 28.6224 106.5647 311° West  Level Estimated
08:46AM 28.6716 106.5008 311° West  Level Estimated
08:47AM 28.7208 106.4369 311° West  Level Estimated
08:48AM 28.7700 106.3729 311° West  Level Estimated
08:49AM 28.8191 106.3089 311° West  Level Estimated
08:50AM 28.8682 106.2448 311° West  Level Estimated
08:51AM 28.9173 106.1806 311° West  Level Estimated
08:52AM 28.9664 106.1164 311° West  Level Estimated
08:53AM 29.0154 106.0521 311° West  Level Estimated
08:54AM 29.0644 105.9878 311° West  Level Estimated
08:55AM 29.1134 105.9234 311° West  Level Estimated
08:56AM 29.1623 105.8589 311° West  Level Estimated
08:57AM 29.2112 105.7944 311° West  Level Estimated
08:58AM 29.2601 105.7298 311° West  Level Estimated
08:59AM 29.3089 105.6652 311° West  Level Estimated
09:00AM 29.3577 105.6005 311° West  Level Estimated
09:01AM 29.4065 105.5357 311° West  Level Estimated
09:02AM 29.4552 105.4709 311° West  Level Estimated
09:03AM 29.5040 105.4060 311° West  Level Estimated
09:04AM 29.5526 105.3410 311° West  Level Estimated
09:05AM 29.6013 105.2760 311° West  Level Estimated
09:06AM 29.6499 105.2110 311° West  Level Estimated
09:07AM 29.6985 105.1458 311° West  Level Estimated
09:08AM 29.7470 105.0806 311° West  Level Estimated
09:09AM 29.7956 105.0153 311° West  Level Estimated
09:10AM 29.8441 104.9500 311° West  Level Estimated
09:11AM 29.8925 104.8846 311° West  Level Estimated
09:12AM 29.9410 104.8191 310° West  Level Estimated
09:13AM 29.9893 104.7536 310° West  Level Estimated
09:14AM 30.0377 104.6880 310° West  Level Estimated
09:15AM 30.0860 104.6224 310° West  Level Estimated
09:16AM 30.1343 104.5567 310° West  Level Estimated
09:17AM 30.1826 104.4909 310° West  Level Estimated
09:18AM 30.2308 104.4250 310° West  Level Estimated
09:19AM 30.2790 104.3591 310° West  Level Estimated
09:20AM 30.3272 104.2932 310° West  Level Estimated
09:21AM 30.3753 104.2271 310° West  Level Estimated
09:22AM 30.4234 104.1610 310° West  Level Estimated